Time;durP1;ratioP1;P1;durP2;ratioP2;P2;SDS_P1;SDS_P2;PMS_P1;PMS_P2;Temp;Humidity;BMP_temperature;BMP_pressure;BME280_temperature;BME280_humidity;BME280_pressure;Samples;Min_cycle;Max_cycle;Signal;HPM_P1;HPM_P2
2022/06/21 00:00:23;;;;;;;4.10;1.80;;;;;;;23.27;44.91;101251.84;5036057;28;20391;-65
2022/06/21 00:03:06;;;;;;;3.30;1.90;;;;;;;23.24;44.60;101251.84;5045981;28;20416;-65
2022/06/21 00:05:35;;;;;;;3.00;1.80;;;;;;;23.28;44.49;101248.34;5065532;28;20392;-65
2022/06/21 00:08:02;;;;;;;4.22;1.75;;;;;;;23.26;45.04;101255.34;5028413;28;20400;-67
2022/06/21 00:10:28;;;;;;;4.22;1.75;;;;;;;23.25;44.45;101247.44;5059809;28;20478;-65
2022/06/21 00:15:30;;;;;;;3.28;1.70;;;;;;;23.25;44.84;101247.44;5074947;22;20430;-51
2022/06/21 00:17:56;;;;;;;3.88;1.70;;;;;;;23.11;44.94;101228.94;5037309;28;20405;-56
2022/06/21 00:20:24;;;;;;;5.33;1.97;;;;;;;23.25;45.18;101258.84;5053412;28;20493;-53
2022/06/21 00:22:49;;;;;;;5.75;1.95;;;;;;;23.16;45.14;101248.25;5038030;28;20944;-52
2022/06/21 00:25:20;;;;;;;4.20;1.80;;;;;;;23.23;44.73;101260.56;5025192;28;20502;-52
2022/06/21 00:27:46;;;;;;;4.43;1.88;;;;;;;23.23;44.91;101260.56;5045786;28;20395;-55
2022/06/21 00:30:12;;;;;;;5.03;1.87;;;;;;;23.26;44.84;101265.84;5052062;28;20775;-55
2022/06/21 00:32:38;;;;;;;3.72;1.92;;;;;;;23.21;45.31;101267.53;5050928;28;21025;-55
2022/06/21 00:35:08;;;;;;;3.57;1.73;;;;;;;23.26;44.97;101270.22;5051085;28;20476;-50
2022/06/21 00:37:34;;;;;;;3.75;1.88;;;;;;;23.26;45.21;101271.13;5070541;28;20491;-54
2022/06/21 00:39:59;;;;;;;5.13;2.25;;;;;;;23.18;45.03;101252.63;5063923;28;20440;-52
2022/06/21 00:42:31;;;;;;;5.00;2.13;;;;;;;23.28;44.54;101274.63;5054088;28;20429;-54
2022/06/21 00:45:07;;;;;;;4.07;1.73;;;;;;;23.28;44.80;101273.72;5054563;28;20390;-52
2022/06/21 00:47:43;;;;;;;4.40;1.80;;;;;;;23.29;44.78;101271.13;5038177;28;20495;-54
2022/06/21 00:50:27;;;;;;;4.93;2.00;;;;;;;23.28;44.58;101269.38;5024316;28;20484;-49
2022/06/21 00:53:00;;;;;;;4.22;2.05;;;;;;;23.28;45.20;101268.47;5071727;28;20393;-56
2022/06/21 00:55:26;;;;;;;4.90;2.20;;;;;;;23.28;44.79;101264.13;5044783;28;20394;-50
2022/06/21 00:57:55;;;;;;;5.45;2.00;;;;;;;23.25;44.70;101257.94;5072009;28;20401;-49
2022/06/21 01:00:23;;;;;;;6.07;2.00;;;;;;;23.20;44.57;101250.03;5052002;28;20447;-51
2022/06/21 01:02:49;;;;;;;5.28;2.30;;;;;;;23.25;45.15;101258.84;5038911;28;20398;-54
2022/06/21 01:05:14;;;;;;;4.53;2.30;;;;;;;23.29;45.13;101271.13;5032468;28;20522;-50
2022/06/21 01:07:41;;;;;;;6.03;2.00;;;;;;;23.18;44.36;101246.50;5037730;28;20373;-51
2022/06/21 01:10:09;;;;;;;4.43;1.85;;;;;;;23.29;44.58;101271.13;5031819;28;20754;-55
2022/06/21 01:12:48;;;;;;;5.05;1.90;;;;;;;23.28;44.83;101264.13;5025693;28;20386;-51
2022/06/21 01:15:18;;;;;;;4.45;1.70;;;;;;;23.29;44.55;101272.88;5054309;28;20390;-55
2022/06/21 01:21:07;;;;;;;3.78;2.10;;;;;;;23.24;44.63;101262.34;4929461;22;20435;-54
2022/06/21 01:23:36;;;;;;;3.80;1.98;;;;;;;23.28;44.68;101274.63;5068344;28;20394;-52
2022/06/21 01:26:38;;;;;;;5.40;2.03;;;;;;;23.30;44.63;101278.16;5091652;28;20457;-52
2022/06/21 01:29:10;;;;;;;6.50;1.98;;;;;;;23.30;45.42;101272.88;5045448;28;20410;-53
2022/06/21 01:31:35;;;;;;;5.07;2.40;;;;;;;23.27;45.11;101267.63;5057349;28;20411;-49
2022/06/21 01:34:00;;;;;;;5.13;2.10;;;;;;;23.28;44.77;101277.25;5062735;28;20872;-54
2022/06/21 01:36:32;;;;;;;4.88;2.17;;;;;;;23.29;45.03;101276.38;5086928;28;20764;-53
2022/06/21 01:39:05;;;;;;;4.13;2.05;;;;;;;23.28;45.01;101279.88;5073768;28;20525;-55
2022/06/21 01:41:39;;;;;;;5.27;2.00;;;;;;;23.30;44.88;101283.41;5073177;28;20961;-55
2022/06/21 01:44:09;;;;;;;6.90;2.30;;;;;;;23.30;44.95;101280.78;5073392;28;20406;-47
2022/06/21 01:46:34;;;;;;;6.43;2.20;;;;;;;23.30;45.25;101272.88;5070546;28;20404;-47
2022/06/21 01:49:07;;;;;;;5.80;2.35;;;;;;;23.17;44.77;101255.25;5051954;28;20954;-53
2022/06/21 01:51:36;;;;;;;5.43;2.13;;;;;;;23.30;44.73;101267.63;5073573;28;20873;-55
2022/06/21 01:54:04;;;;;;;5.07;2.10;;;;;;;23.30;45.03;101267.63;5068812;28;20425;-52
2022/06/21 01:56:34;;;;;;;5.30;2.10;;;;;;;23.28;44.58;101264.13;5057956;28;20459;-55
2022/06/21 01:59:12;;;;;;;5.90;2.50;;;;;;;23.30;45.09;101267.63;5072161;28;20407;-51
2022/06/21 02:01:59;;;;;;;5.20;2.10;;;;;;;23.29;44.70;101265.88;5073791;28;20437;-55
2022/06/21 02:04:29;;;;;;;5.47;2.13;;;;;;;23.28;44.66;101264.13;5058837;28;20469;-49
2022/06/21 02:06:55;;;;;;;6.03;2.25;;;;;;;23.29;44.97;101258.00;5072081;28;20408;-54
2022/06/21 02:09:27;;;;;;;6.68;2.42;;;;;;;23.30;44.86;101266.75;5043898;28;20748;-50
2022/06/21 02:11:58;;;;;;;5.60;2.50;;;;;;;23.23;44.83;101252.66;5073496;28;20419;-54
2022/06/21 02:14:30;;;;;;;5.00;2.15;;;;;;;23.30;44.91;101262.38;5072843;28;20400;-56
2022/06/21 02:17:11;;;;;;;4.93;2.08;;;;;;;23.30;44.30;101256.22;5065391;28;20439;-56
2022/06/21 02:20:00;;;;;;;6.88;2.40;;;;;;;23.13;45.11;101228.06;5040101;28;20398;-55
2022/06/21 02:22:27;;;;;;;5.88;2.42;;;;;;;23.29;44.65;101255.38;5053058;28;20393;-56
2022/06/21 02:24:53;;;;;;;5.22;2.00;;;;;;;23.28;44.76;101248.34;5051319;28;20403;-55
2022/06/21 02:27:21;;;;;;;6.10;2.25;;;;;;;23.28;44.34;101256.22;5052919;28;20747;-54
2022/06/21 02:29:54;;;;;;;5.43;1.92;;;;;;;23.28;44.89;101253.59;5073089;28;20390;-55
2022/06/21 02:32:41;;;;;;;6.10;2.27;;;;;;;23.23;44.66;101234.28;5066910;28;20568;-55
2022/06/21 02:35:18;;;;;;;4.72;2.42;;;;;;;23.30;44.99;101254.50;5070033;28;20905;-55
2022/06/21 02:37:45;;;;;;;5.03;2.00;;;;;;;23.30;44.61;101245.72;5063778;28;20424;-52
2022/06/21 02:40:18;;;;;;;6.93;1.90;;;;;;;23.24;44.63;101246.56;5057610;28;20753;-50
2022/06/21 02:42:45;;;;;;;5.03;1.90;;;;;;;23.29;44.36;101260.63;5072048;28;20396;-55
2022/06/21 02:45:25;;;;;;;5.45;2.10;;;;;;;23.28;44.37;101258.88;5061109;28;20418;-53
2022/06/21 02:47:51;;;;;;;6.82;2.30;;;;;;;23.28;44.29;101253.59;5049125;28;20515;-54
2022/06/21 02:50:37;;;;;;;5.45;2.33;;;;;;;23.29;44.80;101260.63;5068074;28;20397;-54
2022/06/21 02:53:12;;;;;;;5.05;2.08;;;;;;;23.30;44.36;101257.13;5047715;28;20482;-56
2022/06/21 02:55:43;;;;;;;6.18;2.00;;;;;;;23.30;44.27;101251.88;5074780;28;20790;-55
2022/06/21 02:58:16;;;;;;;5.90;2.40;;;;;;;23.29;44.47;101250.09;5084657;28;20388;-51
2022/06/21 03:00:45;;;;;;;5.47;2.20;;;;;;;23.21;44.35;101246.53;5051133;28;20474;-52
2022/06/21 03:03:20;;;;;;;3.95;2.08;;;;;;;23.29;44.40;101255.38;5057334;28;20379;-50
2022/06/21 03:05:49;;;;;;;6.15;2.35;;;;;;;23.30;44.33;101261.47;5055822;28;20727;-52
2022/06/21 03:08:15;;;;;;;6.60;2.10;;;;;;;23.28;45.07;101264.13;5050517;28;20473;-56
2022/06/21 03:10:44;;;;;;;6.13;2.20;;;;;;;23.29;44.48;101260.63;5050067;28;20469;-56
2022/06/21 03:13:22;;;;;;;5.05;2.30;;;;;;;23.28;44.34;101264.13;5086282;28;20864;-55
2022/06/21 03:16:01;;;;;;;5.68;2.05;;;;;;;23.30;44.29;101262.38;5076430;28;20756;-55
2022/06/21 03:18:30;;;;;;;4.90;2.15;;;;;;;23.28;44.86;101253.59;5070216;28;20421;-54
2022/06/21 03:20:58;;;;;;;5.17;2.37;;;;;;;23.30;44.34;101256.22;5069118;28;20574;-52
2022/06/21 03:23:24;;;;;;;6.35;2.20;;;;;;;23.31;44.15;101256.25;5076251;28;20392;-55
2022/06/21 03:26:01;;;;;;;6.45;2.50;;;;;;;23.30;44.50;101257.13;5093594;28;20861;-54
2022/06/21 03:28:29;;;;;;;6.50;2.63;;;;;;;23.27;44.59;101256.22;5045440;28;20450;-56
2022/06/21 03:31:07;;;;;;;5.90;2.42;;;;;;;23.29;44.18;101263.25;5075741;28;20896;-55
2022/06/21 03:33:34;;;;;;;5.35;2.15;;;;;;;23.21;44.43;101251.78;5088942;28;20927;-51
2022/06/21 03:36:02;;;;;;;6.40;2.65;;;;;;;23.31;44.42;101268.50;5075595;28;20857;-55
2022/06/21 03:38:31;;;;;;;8.43;2.60;;;;;;;23.30;44.11;101267.63;5072627;28;20396;-56
2022/06/21 03:43:47;;;;;;;5.45;2.10;;;;;;;23.32;43.97;101271.16;5072190;28;20461;-56
2022/06/21 03:46:18;;;;;;;7.38;2.30;;;;;;;23.30;44.54;101278.16;5065897;28;20392;-53
2022/06/21 03:48:49;;;;;;;5.47;2.28;;;;;;;23.31;44.46;101284.25;5072285;28;20411;-53
2022/06/21 03:51:23;;;;;;;4.32;2.10;;;;;;;23.30;44.24;101288.66;5075494;28;20437;-56
2022/06/21 03:54:10;;;;;;;5.40;2.13;;;;;;;23.31;43.92;101290.41;5060587;28;20463;-56
2022/06/21 03:56:49;;;;;;;5.90;2.15;;;;;;;23.31;44.39;101285.16;5061775;28;20393;-54
2022/06/21 03:59:38;;;;;;;6.55;2.20;;;;;;;23.30;44.30;101283.41;5085002;28;20395;-53
2022/06/21 04:02:33;;;;;;;5.32;2.05;;;;;;;23.28;44.53;101285.13;5092296;28;20386;-55
2022/06/21 04:05:17;;;;;;;6.15;2.33;;;;;;;23.29;44.54;101292.16;5059174;28;20392;-52
2022/06/21 04:07:45;;;;;;;6.45;2.33;;;;;;;23.29;44.51;101292.16;5075346;28;20477;-56
2022/06/21 04:10:24;;;;;;;4.13;1.80;;;;;;;23.30;44.81;101299.16;5093166;28;20441;-56
2022/06/21 04:13:21;;;;;;;7.68;2.20;;;;;;;23.31;44.10;101306.19;5085266;28;20392;-55
2022/06/21 04:15:46;;;;;;;6.28;2.17;;;;;;;23.31;44.03;101303.56;5062639;28;20502;-52
2022/06/21 04:18:31;;;;;;;5.60;2.00;;;;;;;23.31;44.39;101306.19;5086206;28;20398;-53
2022/06/21 04:21:18;;;;;;;6.53;2.20;;;;;;;23.32;44.31;101307.94;5074612;28;20506;-55
2022/06/21 04:23:53;;;;;;;6.97;2.50;;;;;;;23.29;44.27;101297.41;5075848;28;20392;-53
2022/06/21 04:26:24;;;;;;;6.30;2.20;;;;;;;23.29;44.55;101297.41;5070069;28;20399;-52
2022/06/21 04:29:01;;;;;;;4.83;2.03;;;;;;;23.29;44.23;101296.50;5085613;28;20399;-54
2022/06/21 04:31:32;;;;;;;6.30;2.35;;;;;;;23.28;43.80;101300.91;5088311;28;20368;-55
2022/06/21 04:34:16;;;;;;;5.10;2.60;;;;;;;23.25;44.43;101295.63;5055070;28;20446;-51
2022/06/21 04:36:50;;;;;;;7.03;2.03;;;;;;;23.27;43.73;101299.16;5061356;28;20409;-55
2022/06/21 04:39:22;;;;;;;5.23;2.47;;;;;;;23.21;43.75;101296.44;5073520;28;20404;-53
2022/06/21 04:42:03;;;;;;;8.27;2.37;;;;;;;23.25;44.24;101300.88;5069730;28;20455;-53
2022/06/21 04:45:14;;;;;;;4.60;2.08;;;;;;;23.27;44.48;101314.91;5065285;28;20478;-52
2022/06/21 04:48:08;;;;;;;5.95;2.05;;;;;;;23.27;44.74;101312.28;5046726;28;20475;-55
2022/06/21 04:50:40;;;;;;;5.82;2.00;;;;;;;23.27;43.74;101314.91;5087088;28;20401;-50
2022/06/21 04:53:15;;;;;;;6.18;2.28;;;;;;;23.25;44.25;101306.16;5056059;28;20440;-50
2022/06/21 04:55:55;;;;;;;5.22;1.85;;;;;;;23.27;43.81;101312.28;5074800;28;20393;-56
2022/06/21 04:58:21;;;;;;;6.13;2.22;;;;;;;23.26;43.73;101318.41;5065886;28;20736;-50
2022/06/21 05:00:46;;;;;;;5.38;2.15;;;;;;;23.26;44.13;101310.53;5070682;28;20392;-58
2022/06/21 05:03:30;;;;;;;4.22;1.95;;;;;;;23.23;43.75;101313.09;5071079;28;20874;-52
2022/06/21 05:05:58;;;;;;;4.60;2.40;;;;;;;23.23;44.67;101307.84;5054683;28;20428;-50
2022/06/21 05:08:24;;;;;;;4.82;1.80;;;;;;;23.26;43.92;101323.66;5055789;28;20813;-49
2022/06/21 05:10:54;;;;;;;5.73;2.20;;;;;;;23.24;44.67;101309.63;5090245;28;20550;-54
2022/06/21 05:13:29;;;;;;;5.80;2.13;;;;;;;23.23;44.95;101313.09;5069225;28;20420;-55
2022/06/21 05:15:56;;;;;;;5.50;1.80;;;;;;;23.25;43.92;101321.91;5067156;28;20389;-51
2022/06/21 05:18:31;;;;;;;4.32;1.80;;;;;;;23.26;44.46;101323.66;5068407;28;20379;-51
2022/06/21 05:21:03;;;;;;;5.07;1.98;;;;;;;23.27;44.25;101320.16;5070181;28;20559;-49
2022/06/21 05:23:34;;;;;;;4.40;1.70;;;;;;;23.28;44.54;101311.41;5067041;28;20388;-48
2022/06/21 05:26:02;;;;;;;4.85;1.98;;;;;;;23.33;44.37;101314.97;5059166;28;20476;-52
2022/06/21 05:28:34;;;;;;;6.10;2.15;;;;;;;23.36;43.34;101313.22;5041486;28;20393;-59
2022/06/21 05:31:03;;;;;;;6.60;2.20;;;;;;;23.38;44.24;101316.75;5056108;28;20451;-53
2022/06/21 05:33:41;;;;;;;6.10;2.42;;;;;;;23.37;43.77;101321.13;5061759;28;20388;-50
2022/06/21 05:36:10;;;;;;;5.45;2.25;;;;;;;23.40;44.34;101315.00;5068481;28;20384;-50
2022/06/21 05:38:36;;;;;;;9.80;2.90;;;;;;;23.35;44.12;101322.88;5066390;28;20404;-53
2022/06/21 05:41:10;;;;;;;9.82;2.80;;;;;;;23.37;44.65;101329.03;5064386;28;20407;-53
2022/06/21 05:43:36;;;;;;;9.30;2.53;;;;;;;23.29;44.43;101307.03;5063305;28;20397;-48
2022/06/21 05:46:10;;;;;;;9.98;2.40;;;;;;;23.30;44.30;101314.94;5086470;28;20388;-49
2022/06/21 05:48:36;;;;;;;8.40;2.40;;;;;;;23.31;44.81;101316.69;5069683;28;20573;-55
2022/06/21 05:51:04;;;;;;;10.02;2.70;;;;;;;23.32;44.45;101315.81;5062935;28;20377;-52
2022/06/21 05:53:39;;;;;;;8.95;2.58;;;;;;;23.31;44.69;101321.94;5071255;28;20635;-50
2022/06/21 05:56:17;;;;;;;7.47;2.67;;;;;;;23.31;44.23;101316.69;5058683;28;20414;-52
2022/06/21 05:58:46;;;;;;;8.15;2.38;;;;;;;23.31;44.65;101324.59;5069836;28;20438;-50
2022/06/21 06:01:39;;;;;;;12.15;2.50;;;;;;;23.31;44.28;101321.94;5071182;28;20864;-53
2022/06/21 06:04:12;;;;;;;11.73;2.70;;;;;;;23.32;44.54;101318.47;5066877;28;20919;-51
2022/06/21 06:06:41;;;;;;;9.87;2.20;;;;;;;23.32;44.82;101326.34;5079915;28;20429;-52
2022/06/21 06:09:26;;;;;;;8.95;3.20;;;;;;;23.33;44.53;101321.97;5088818;28;20373;-50
2022/06/21 06:12:14;;;;;;;9.05;2.80;;;;;;;23.32;44.94;101328.06;5089536;28;20837;-53
2022/06/21 06:15:30;;;;;;;6.60;3.00;;;;;;;23.32;44.51;101328.97;5072036;28;20451;-52
2022/06/21 06:18:04;;;;;;;7.15;2.60;;;;;;;23.18;44.66;101310.44;5065218;28;20404;-54
2022/06/21 06:20:34;;;;;;;8.32;2.50;;;;;;;23.33;44.56;101335.97;5048882;28;20489;-50
2022/06/21 06:23:26;;;;;;;6.60;2.30;;;;;;;23.32;44.54;101336.84;5072811;28;20848;-50
2022/06/21 06:25:59;;;;;;;8.30;2.67;;;;;;;23.32;44.46;101328.97;5043394;28;20878;-48
2022/06/21 06:28:34;;;;;;;14.57;4.05;;;;;;;23.31;44.30;101321.94;5059001;28;20731;-50
2022/06/21 06:31:05;;;;;;;8.35;3.08;;;;;;;23.33;44.52;101330.72;5071558;28;20366;-47
2022/06/21 06:33:37;;;;;;;7.22;2.35;;;;;;;23.34;44.49;101327.22;5079887;28;20401;-47
2022/06/21 06:36:11;;;;;;;8.02;2.40;;;;;;;23.34;44.65;101327.22;5052545;28;20931;-48
2022/06/21 06:38:40;;;;;;;6.83;2.40;;;;;;;23.34;45.14;101327.22;5071414;28;20856;-48
2022/06/21 06:41:17;;;;;;;7.72;2.80;;;;;;;23.36;44.46;101329.00;5078996;28;20390;-52
2022/06/21 06:43:55;;;;;;;7.20;2.35;;;;;;;23.34;44.55;101321.97;5054517;28;20715;-50
2022/06/21 06:49:20;;;;;;;7.05;2.20;;;;;;;23.34;44.73;101321.97;5081874;22;20419;-61
2022/06/21 06:52:00;;;;;;;6.18;2.40;;;;;;;23.34;45.07;101327.22;5027763;28;20892;-59
2022/06/21 06:54:44;;;;;;;7.72;2.20;;;;;;;23.34;44.82;101332.50;5077577;28;20374;-59
2022/06/21 06:57:17;;;;;;;6.35;2.22;;;;;;;23.34;44.50;101331.63;5036569;28;20377;-60
2022/06/21 06:59:43;;;;;;;7.68;2.30;;;;;;;23.33;44.06;101335.97;5052886;28;20390;-60
2022/06/21 07:02:21;;;;;;;7.13;2.08;;;;;;;23.35;44.63;101338.63;5053130;28;20377;-60
2022/06/21 07:04:53;;;;;;;4.65;2.13;;;;;;;23.36;44.95;101334.25;5060124;28;20380;-60
2022/06/21 07:07:27;;;;;;;6.60;2.20;;;;;;;23.34;44.27;101343.00;5067127;28;20404;-60
2022/06/21 07:09:56;;;;;;;8.43;2.88;;;;;;;23.33;44.28;101341.25;5056413;28;20854;-60
2022/06/21 07:12:32;;;;;;;6.97;1.98;;;;;;;23.33;44.26;101338.63;5056390;28;20431;-60
2022/06/21 07:14:59;;;;;;;5.22;2.20;;;;;;;23.31;44.81;101347.34;5056853;28;20760;-60
2022/06/21 07:17:48;;;;;;;5.43;2.53;;;;;;;23.34;44.34;101348.25;5072790;28;20459;-60
2022/06/21 07:20:20;;;;;;;6.65;2.15;;;;;;;23.36;44.94;101350.03;5065780;28;20746;-60
2022/06/21 07:22:55;;;;;;;3.97;2.05;;;;;;;23.35;44.80;101338.63;5081563;28;20389;-61
2022/06/21 07:25:49;;;;;;;4.60;2.08;;;;;;;23.33;44.52;101341.25;5036179;28;20409;-61
2022/06/21 07:28:22;;;;;;;6.18;2.25;;;;;;;23.33;44.34;101335.97;5030153;28;20886;-60
2022/06/21 07:30:52;;;;;;;5.85;2.30;;;;;;;23.30;44.65;101322.81;5056537;28;20381;-61
2022/06/21 07:33:52;;;;;;;7.05;2.20;;;;;;;23.36;44.52;101329.00;5052936;28;20390;-60
2022/06/21 07:36:27;;;;;;;6.10;2.00;;;;;;;23.34;44.69;101332.50;5072557;28;20428;-60
2022/06/21 07:39:28;;;;;;;5.37;2.00;;;;;;;23.34;44.43;101321.97;5039400;28;20457;-60
2022/06/21 07:42:00;;;;;;;4.20;2.08;;;;;;;23.36;44.26;101327.25;5022757;28;20482;-60
2022/06/21 07:44:30;;;;;;;6.22;2.20;;;;;;;23.36;44.17;101326.38;5056067;28;20380;-60
2022/06/21 07:47:04;;;;;;;7.40;2.35;;;;;;;23.37;44.21;101325.50;5058409;28;20376;-61
2022/06/21 07:49:36;;;;;;;5.63;2.10;;;;;;;23.38;43.98;101332.50;5047863;28;20464;-61
2022/06/21 07:52:18;;;;;;;5.75;2.20;;;;;;;23.38;44.60;101341.28;5059151;28;20926;-60
2022/06/21 07:54:55;;;;;;;6.75;2.00;;;;;;;23.39;44.62;101342.16;5059274;28;20445;-60
2022/06/21 07:57:25;;;;;;;7.03;2.08;;;;;;;23.38;44.19;101332.50;5059472;28;20434;-60
2022/06/21 08:00:06;;;;;;;5.28;1.90;;;;;;;23.37;44.51;101333.38;5058489;28;20385;-60
2022/06/21 08:08:31;;;;;;;5.35;2.00;;;;;;;23.33;44.00;101330.72;5066944;28;20874;-59
2022/06/21 08:11:01;;;;;;;5.65;2.10;;;;;;;23.33;43.76;101341.25;5055996;28;20377;-60
2022/06/21 08:13:34;;;;;;;4.85;1.90;;;;;;;23.22;44.11;101316.59;5038969;28;20374;-59
2022/06/21 08:16:14;;;;;;;7.00;2.85;;;;;;;23.33;44.45;101335.97;5046964;28;20894;-68
2022/06/21 08:18:48;;;;;;;7.87;2.33;;;;;;;23.36;43.12;101336.88;5060564;28;20429;-69
2022/06/21 08:21:22;;;;;;;4.95;2.25;;;;;;;23.42;43.31;101334.28;5075111;28;20403;-68
2022/06/21 08:23:59;;;;;;;5.97;1.90;;;;;;;23.45;43.41;101339.56;5060493;28;20377;-68
2022/06/21 08:26:27;;;;;;;9.25;2.97;;;;;;;23.22;41.85;101337.63;5048401;28;20802;-69
2022/06/21 08:29:08;;;;;;;7.07;2.83;;;;;;;22.97;42.47;101332.16;5046938;28;20868;-67
2022/06/21 08:31:40;;;;;;;6.47;2.25;;;;;;;22.79;42.27;101337.22;5043992;28;20394;-68
2022/06/21 08:34:09;;;;;;;7.15;2.50;;;;;;;22.76;42.62;101336.34;5046354;28;20380;-69
2022/06/21 08:36:34;;;;;;;10.60;2.60;;;;;;;22.72;42.56;101331.91;5074542;28;20764;-70
2022/06/21 08:39:09;;;;;;;6.33;2.20;;;;;;;22.65;42.70;101330.09;5090854;28;20368;-66
2022/06/21 08:41:52;;;;;;;6.32;2.20;;;;;;;22.71;42.93;101319.66;5065384;28;20417;-71
2022/06/21 08:44:46;;;;;;;6.28;2.33;;;;;;;22.95;42.29;101327.75;5071171;28;20380;-71
2022/06/21 08:47:31;;;;;;;7.60;2.17;;;;;;;23.07;42.65;101337.50;5085493;28;20391;-72
2022/06/21 08:50:08;;;;;;;4.80;2.10;;;;;;;23.12;42.27;101341.03;5057870;28;20848;-72
2022/06/21 08:53:04;;;;;;;7.30;2.65;;;;;;;23.19;42.41;101337.59;5074893;28;20765;-70
2022/06/21 08:55:30;;;;;;;6.20;2.40;;;;;;;23.24;42.55;101335.03;5074569;28;20419;-71
2022/06/21 08:58:14;;;;;;;5.57;1.97;;;;;;;23.27;41.89;101341.19;5092451;28;20380;-71
2022/06/21 09:00:57;;;;;;;5.05;1.85;;;;;;;23.30;42.18;101346.47;5057569;28;20387;-70
2022/06/21 09:03:38;;;;;;;5.70;2.08;;;;;;;23.31;42.42;101348.22;5057873;28;20803;-71
2022/06/21 09:06:21;;;;;;;6.40;1.90;;;;;;;23.30;41.77;101346.47;5092344;28;20439;-70
2022/06/21 09:09:04;;;;;;;4.65;2.00;;;;;;;23.32;42.26;101355.25;5057759;28;20372;-70
2022/06/21 09:12:01;;;;;;;5.05;1.90;;;;;;;23.31;42.58;101345.59;5057888;28;20413;-70
2022/06/21 09:14:32;;;;;;;6.00;2.22;;;;;;;23.23;42.80;101344.63;5073740;28;20453;-70
2022/06/21 09:16:57;;;;;;;4.70;2.00;;;;;;;23.21;43.11;101341.13;5063175;28;20381;-70
2022/06/21 09:19:44;;;;;;;7.20;2.10;;;;;;;23.29;43.20;101355.22;5053922;28;20374;-70
2022/06/21 09:22:25;;;;;;;4.53;1.85;;;;;;;23.29;42.81;101352.59;5070963;28;20396;-70
2022/06/21 09:25:06;;;;;;;5.10;1.95;;;;;;;23.30;43.36;101346.47;5074002;28;20376;-71
2022/06/21 09:27:44;;;;;;;4.38;1.85;;;;;;;23.33;42.32;101354.38;5073906;28;20381;-70
2022/06/21 09:30:14;;;;;;;6.20;2.08;;;;;;;23.33;42.62;101351.75;5056402;28;20392;-71
2022/06/21 09:33:04;;;;;;;4.80;1.80;;;;;;;23.36;42.03;101350.03;5056944;28;20382;-71
2022/06/21 09:35:54;;;;;;;7.68;2.30;;;;;;;23.40;42.27;101362.31;5056102;28;20477;-71
2022/06/21 09:38:40;;;;;;;6.13;2.30;;;;;;;23.42;42.24;101344.81;5092038;28;20360;-70
2022/06/21 09:41:15;;;;;;;5.68;2.20;;;;;;;23.41;41.90;101356.19;5055900;28;20441;-71
2022/06/21 09:44:01;;;;;;;4.47;1.90;;;;;;;23.42;41.93;101355.31;5073168;28;20482;-71
2022/06/21 09:46:48;;;;;;;5.40;1.95;;;;;;;23.42;41.71;101360.56;5056394;28;20381;-71
2022/06/21 09:49:39;;;;;;;5.88;2.20;;;;;;;23.40;43.06;101357.06;5052585;28;20417;-71
2022/06/21 09:52:23;;;;;;;3.70;1.60;;;;;;;23.38;43.00;101353.53;5065427;28;20376;-67
2022/06/21 09:55:08;;;;;;;8.80;4.73;;;;;;;23.37;40.12;101357.03;5068966;28;20423;-68
2022/06/21 09:57:51;;;;;;;8.05;3.40;;;;;;;23.22;39.25;101353.38;5051616;28;20408;-69
2022/06/21 10:00:28;;;;;;;7.20;3.10;;;;;;;23.22;40.34;101363.91;5086226;28;20531;-68
2022/06/21 10:03:03;;;;;;;7.15;2.17;;;;;;;23.23;40.31;101349.91;5052679;28;20454;-69
2022/06/21 10:05:57;;;;;;;5.28;2.00;;;;;;;23.22;39.71;101363.91;5068358;28;20480;-66
2022/06/21 10:08:50;;;;;;;5.22;2.13;;;;;;;23.20;39.78;101363.00;5082533;28;20875;-67
2022/06/21 10:11:54;;;;;;;5.82;2.00;;;;;;;23.05;39.29;101362.00;5067959;28;20388;-68
2022/06/21 10:14:20;;;;;;;5.78;2.33;;;;;;;22.83;38.85;101331.16;5052811;28;20399;-66
2022/06/21 10:16:52;;;;;;;6.93;2.20;;;;;;;23.02;39.16;101351.47;5063930;28;20841;-67
2022/06/21 10:19:46;;;;;;;12.40;3.25;;;;;;;23.04;39.06;101355.00;5072359;28;20418;-67
2022/06/21 10:22:53;;;;;;;6.43;1.97;;;;;;;23.10;39.43;101353.28;5064292;28;20598;-68
2022/06/21 10:26:03;;;;;;;7.43;2.03;;;;;;;23.13;39.58;101358.56;5054349;28;20496;-67
2022/06/21 10:28:34;;;;;;;5.85;2.10;;;;;;;23.14;39.08;101355.06;5010972;28;20378;-69
2022/06/21 10:31:22;;;;;;;7.97;2.30;;;;;;;23.12;39.05;101347.16;5060842;28;20384;-67
2022/06/21 10:33:49;;;;;;;6.20;2.10;;;;;;;23.14;38.45;101355.94;5063335;28;20442;-65
2022/06/21 10:36:41;;;;;;;4.93;1.90;;;;;;;23.10;37.80;101358.53;5090530;28;20711;-67
2022/06/21 10:39:17;;;;;;;6.78;2.30;;;;;;;23.05;37.88;101346.25;5056144;28;20380;-67
2022/06/21 10:44:52;;;;;;;7.18;2.50;;;;;;;23.15;38.04;101347.19;5085999;28;21004;-67
2022/06/21 10:47:41;;;;;;;8.00;2.20;;;;;;;23.21;38.30;101346.38;5052679;28;20440;-68
2022/06/21 10:50:07;;;;;;;4.78;1.90;;;;;;;23.25;37.75;101348.19;5052032;28;20419;-67
2022/06/21 10:52:49;;;;;;;4.55;1.80;;;;;;;23.26;37.91;101339.44;5055373;28;20387;-67
2022/06/21 10:55:42;;;;;;;5.60;2.10;;;;;;;23.27;37.54;101340.31;5067714;28;20384;-68
2022/06/21 10:58:26;;;;;;;4.95;1.90;;;;;;;23.25;37.93;101327.16;5072750;28;20861;-68
2022/06/21 11:01:18;;;;;;;7.05;2.10;;;;;;;23.29;37.96;101334.19;5069938;28;20398;-69
2022/06/21 11:04:08;;;;;;;5.15;1.90;;;;;;;23.28;37.34;101326.28;5040332;28;20413;-69
2022/06/21 11:06:36;;;;;;;5.03;2.00;;;;;;;23.34;37.52;101332.50;5081137;28;20531;-69
2022/06/21 11:09:08;;;;;;;6.57;1.88;;;;;;;23.34;36.97;101319.34;5082803;28;20378;-71
2022/06/21 11:11:50;;;;;;;5.72;2.28;;;;;;;23.33;37.64;101335.97;5055609;28;20383;-67
2022/06/21 11:14:27;;;;;;;5.40;2.17;;;;;;;23.28;37.17;101316.69;5056510;28;20369;-69
2022/06/21 11:17:20;;;;;;;5.55;2.00;;;;;;;23.29;38.21;101322.78;5065667;28;20989;-68
2022/06/21 11:20:02;;;;;;;7.27;2.53;;;;;;;23.33;37.82;101320.22;5039797;28;20397;-71
2022/06/21 11:22:31;;;;;;;5.00;2.22;;;;;;;23.38;38.12;101316.75;5056509;28;20455;-69
2022/06/21 11:25:34;;;;;;;4.43;2.10;;;;;;;23.38;37.97;101311.47;5067293;28;20425;-68
2022/06/21 11:28:06;;;;;;;5.95;2.15;;;;;;;23.38;37.78;101303.59;5056613;28;20366;-68
2022/06/21 11:31:09;;;;;;;5.20;2.35;;;;;;;23.38;37.46;101311.47;5074347;28;20897;-68
2022/06/21 11:33:57;;;;;;;4.75;2.13;;;;;;;23.40;37.77;101315.00;5064075;28;20401;-68
2022/06/21 11:36:47;;;;;;;5.53;1.95;;;;;;;23.42;37.08;101308.00;5039654;28;20382;-68
2022/06/21 11:39:16;;;;;;;5.90;2.05;;;;;;;23.41;36.94;101306.25;5048058;28;20404;-68
2022/06/21 11:42:12;;;;;;;5.38;2.30;;;;;;;23.43;37.27;101312.38;5058879;28;20398;-68
2022/06/21 11:44:52;;;;;;;5.75;2.00;;;;;;;23.43;37.07;101309.75;5039328;28;20374;-67
2022/06/21 11:47:57;;;;;;;5.97;2.33;;;;;;;23.38;37.75;101316.75;5066463;28;20403;-67
2022/06/21 11:50:32;;;;;;;5.77;2.40;;;;;;;23.33;38.33;101303.59;5070472;28;20402;-67
2022/06/21 11:53:28;;;;;;;4.57;1.93;;;;;;;23.43;38.05;101320.28;5063797;28;20399;-67
2022/06/21 11:56:07;;;;;;;9.50;2.20;;;;;;;23.44;38.03;101319.41;5050010;28;20397;-57
2022/06/21 11:59:05;;;;;;;6.32;2.30;;;;;;;23.39;38.32;101313.25;5068657;28;20377;-60
2022/06/21 12:01:57;;;;;;;6.70;1.80;;;;;;;23.29;37.75;101297.41;5053576;28;20392;-62
2022/06/21 12:04:50;;;;;;;7.07;2.50;;;;;;;23.42;38.17;101318.50;5085217;28;20387;-64
2022/06/21 12:07:37;;;;;;;7.93;3.25;;;;;;;23.45;37.10;101308.03;5069676;28;20818;-67
2022/06/21 12:10:15;;;;;;;8.57;2.78;;;;;;;23.45;37.43;101302.75;5092709;28;20399;-67
2022/06/21 12:13:05;;;;;;;8.43;3.58;;;;;;;23.46;38.90;101300.16;5056395;28;20399;-64
2022/06/21 12:16:34;;;;;;;7.07;2.63;;;;;;;23.46;38.20;101294.00;5082151;28;20469;-61
2022/06/21 12:19:22;;;;;;;5.07;2.17;;;;;;;23.46;38.39;101294.00;5010934;28;20415;-63
2022/06/21 12:22:19;;;;;;;4.65;2.20;;;;;;;23.44;38.51;101285.22;5059325;28;20446;-64
2022/06/21 12:24:52;;;;;;;5.05;2.20;;;;;;;23.40;38.85;101272.94;5085621;28;20392;-62
2022/06/21 12:27:18;;;;;;;5.63;2.00;;;;;;;23.59;39.08;101301.09;5062167;28;20468;-61
2022/06/21 12:29:44;;;;;;;5.25;2.13;;;;;;;23.58;38.39;101283.56;5070023;28;20780;-64